sensor_id;sensor_type;location;lat;lon;timestamp;temperature;humidity
19974;DHT22;10148;47.694;9.442;2023-03-23T00:01:48;10.70;99.90
19974;DHT22;10148;47.694;9.442;2023-03-23T00:04:16;10.60;99.90
19974;DHT22;10148;47.694;9.442;2023-03-23T00:06:41;10.60;99.90
19974;DHT22;10148;47.694;9.442;2023-03-23T00:09:09;10.60;99.90
19974;DHT22;10148;47.694;9.442;2023-03-23T00:11:35;10.50;99.90
19974;DHT22;10148;47.694;9.442;2023-03-23T00:14:00;10.40;99.90
19974;DHT22;10148;47.694;9.442;2023-03-23T00:16:31;10.40;99.90
19974;DHT22;10148;47.694;9.442;2023-03-23T00:19:16;10.40;99.90
19974;DHT22;10148;47.694;9.442;2023-03-23T00:21:44;10.40;99.90
19974;DHT22;10148;47.694;9.442;2023-03-23T00:24:12;10.30;99.90
19974;DHT22;10148;47.694;9.442;2023-03-23T00:26:40;10.40;99.90
19974;DHT22;10148;47.694;9.442;2023-03-23T00:29:08;10.40;99.90
19974;DHT22;10148;47.694;9.442;2023-03-23T00:31:35;10.50;99.90
19974;DHT22;10148;47.694;9.442;2023-03-23T00:34:03;10.60;99.90
19974;DHT22;10148;47.694;9.442;2023-03-23T00:36:31;10.60;99.90
19974;DHT22;10148;47.694;9.442;2023-03-23T00:38:57;10.70;99.90
19974;DHT22;10148;47.694;9.442;2023-03-23T00:41:25;10.70;99.90
19974;DHT22;10148;47.694;9.442;2023-03-23T00:43:55;10.70;99.90
19974;DHT22;10148;47.694;9.442;2023-03-23T00:46:21;10.70;99.90
19974;DHT22;10148;47.694;9.442;2023-03-23T00:48:47;10.70;99.90
19974;DHT22;10148;47.694;9.442;2023-03-23T00:51:13;10.80;99.90
19974;DHT22;10148;47.694;9.442;2023-03-23T00:53:39;10.80;99.90
19974;DHT22;10148;47.694;9.442;2023-03-23T00:56:07;10.80;99.90
19974;DHT22;10148;47.694;9.442;2023-03-23T00:58:32;10.80;99.90
19974;DHT22;10148;47.694;9.442;2023-03-23T01:00:58;10.50;99.90
19974;DHT22;10148;47.694;9.442;2023-03-23T01:03:24;10.20;99.90
19974;DHT22;10148;47.694;9.442;2023-03-23T01:05:51;10.00;99.90
19974;DHT22;10148;47.694;9.442;2023-03-23T01:08:18;10.00;99.90
19974;DHT22;10148;47.694;9.442;2023-03-23T01:10:45;10.00;99.90
19974;DHT22;10148;47.694;9.442;2023-03-23T01:13:11;10.10;99.90
19974;DHT22;10148;47.694;9.442;2023-03-23T01:15:38;10.20;99.90
19974;DHT22;10148;47.694;9.442;2023-03-23T01:18:03;10.20;99.90
19974;DHT22;10148;47.694;9.442;2023-03-23T01:20:29;10.20;99.90
19974;DHT22;10148;47.694;9.442;2023-03-23T01:22:57;10.30;99.90
19974;DHT22;10148;47.694;9.442;2023-03-23T01:25:30;10.40;99.90
19974;DHT22;10148;47.694;9.442;2023-03-23T01:27:57;10.50;99.90
19974;DHT22;10148;47.694;9.442;2023-03-23T01:30:23;10.50;99.90
19974;DHT22;10148;47.694;9.442;2023-03-23T01:32:49;10.60;99.90
19974;DHT22;10148;47.694;9.442;2023-03-23T01:35:15;10.60;99.90
19974;DHT22;10148;47.694;9.442;2023-03-23T01:37:41;10.70;99.90
19974;DHT22;10148;47.694;9.442;2023-03-23T01:40:07;10.70;99.90
19974;DHT22;10148;47.694;9.442;2023-03-23T01:42:35;10.60;99.90
19974;DHT22;10148;47.694;9.442;2023-03-23T01:47:51;10.50;99.90
19974;DHT22;10148;47.694;9.442;2023-03-23T01:50:19;10.50;99.90
19974;DHT22;10148;47.694;9.442;2023-03-23T01:52:48;10.40;99.90
19974;DHT22;10148;47.694;9.442;2023-03-23T01:55:14;10.30;99.90
19974;DHT22;10148;47.694;9.442;2023-03-23T01:57:41;10.20;99.90
19974;DHT22;10148;47.694;9.442;2023-03-23T02:00:08;10.20;99.90
19974;DHT22;10148;47.694;9.442;2023-03-23T02:02:41;10.20;99.90
19974;DHT22;10148;47.694;9.442;2023-03-23T02:05:11;10.20;99.90
19974;DHT22;10148;47.694;9.442;2023-03-23T02:07:38;10.10;99.90
19974;DHT22;10148;47.694;9.442;2023-03-23T02:10:04;10.20;99.90
19974;DHT22;10148;47.694;9.442;2023-03-23T02:12:30;10.10;99.90
19974;DHT22;10148;47.694;9.442;2023-03-23T02:14:55;10.10;99.90
19974;DHT22;10148;47.694;9.442;2023-03-23T02:20:48;10.10;99.90
19974;DHT22;10148;47.694;9.442;2023-03-23T02:34:45;10.00;99.90
19974;DHT22;10148;47.694;9.442;2023-03-23T02:37:55;9.90;99.90
19974;DHT22;10148;47.694;9.442;2023-03-23T02:40:30;10.00;99.90
19974;DHT22;10148;47.694;9.442;2023-03-23T02:42:57;10.00;99.90
19974;DHT22;10148;47.694;9.442;2023-03-23T02:45:27;10.00;99.90
19974;DHT22;10148;47.694;9.442;2023-03-23T02:47:54;10.00;99.90
19974;DHT22;10148;47.694;9.442;2023-03-23T02:50:23;10.00;99.90
19974;DHT22;10148;47.694;9.442;2023-03-23T02:52:50;10.00;99.90
19974;DHT22;10148;47.694;9.442;2023-03-23T02:55:18;10.00;99.90
19974;DHT22;10148;47.694;9.442;2023-03-23T02:57:45;10.00;99.90
19974;DHT22;10148;47.694;9.442;2023-03-23T03:00:14;10.00;99.90
19974;DHT22;10148;47.694;9.442;2023-03-23T03:02:43;10.00;99.90
19974;DHT22;10148;47.694;9.442;2023-03-23T03:11:13;10.00;99.90
19974;DHT22;10148;47.694;9.442;2023-03-23T03:13:54;10.00;99.90
19974;DHT22;10148;47.694;9.442;2023-03-23T03:19:04;10.10;99.90
19974;DHT22;10148;47.694;9.442;2023-03-23T03:21:35;10.20;99.90
19974;DHT22;10148;47.694;9.442;2023-03-23T03:24:03;10.20;99.90
19974;DHT22;10148;47.694;9.442;2023-03-23T03:26:31;10.20;99.90
19974;DHT22;10148;47.694;9.442;2023-03-23T03:29:00;10.20;99.90
19974;DHT22;10148;47.694;9.442;2023-03-23T03:31:29;10.20;99.90
19974;DHT22;10148;47.694;9.442;2023-03-23T03:33:56;10.20;99.90
19974;DHT22;10148;47.694;9.442;2023-03-23T03:36:27;10.20;99.90
19974;DHT22;10148;47.694;9.442;2023-03-23T03:38:52;10.20;99.90
19974;DHT22;10148;47.694;9.442;2023-03-23T03:41:19;10.20;99.90
19974;DHT22;10148;47.694;9.442;2023-03-23T03:43:45;10.20;99.90
19974;DHT22;10148;47.694;9.442;2023-03-23T03:46:11;10.20;99.90
19974;DHT22;10148;47.694;9.442;2023-03-23T03:48:36;10.00;99.90
19974;DHT22;10148;47.694;9.442;2023-03-23T03:51:02;10.00;99.90
19974;DHT22;10148;47.694;9.442;2023-03-23T03:53:29;10.00;99.90
19974;DHT22;10148;47.694;9.442;2023-03-23T03:55:55;9.90;99.90
19974;DHT22;10148;47.694;9.442;2023-03-23T03:58:25;9.80;99.90
19974;DHT22;10148;47.694;9.442;2023-03-23T04:00:57;9.60;99.90
19974;DHT22;10148;47.694;9.442;2023-03-23T04:03:23;9.50;99.90
19974;DHT22;10148;47.694;9.442;2023-03-23T04:05:49;9.40;99.90
19974;DHT22;10148;47.694;9.442;2023-03-23T04:08:14;9.40;99.90
19974;DHT22;10148;47.694;9.442;2023-03-23T04:10:40;9.40;99.90
19974;DHT22;10148;47.694;9.442;2023-03-23T04:13:06;9.40;99.90
19974;DHT22;10148;47.694;9.442;2023-03-23T04:15:31;9.40;99.90
19974;DHT22;10148;47.694;9.442;2023-03-23T04:17:57;9.40;99.90
19974;DHT22;10148;47.694;9.442;2023-03-23T04:20:23;9.40;99.90
19974;DHT22;10148;47.694;9.442;2023-03-23T04:22:50;9.40;99.90
19974;DHT22;10148;47.694;9.442;2023-03-23T04:25:18;9.50;99.90
19974;DHT22;10148;47.694;9.442;2023-03-23T04:27:49;9.40;99.90
19974;DHT22;10148;47.694;9.442;2023-03-23T04:30:22;9.40;99.90
19974;DHT22;10148;47.694;9.442;2023-03-23T04:32:50;9.30;99.90
19974;DHT22;10148;47.694;9.442;2023-03-23T04:35:18;9.30;99.90
19974;DHT22;10148;47.694;9.442;2023-03-23T04:37:45;9.20;99.90
19974;DHT22;10148;47.694;9.442;2023-03-23T04:40:13;9.20;99.90
19974;DHT22;10148;47.694;9.442;2023-03-23T04:42:41;9.30;99.90
19974;DHT22;10148;47.694;9.442;2023-03-23T04:45:11;9.30;99.90
19974;DHT22;10148;47.694;9.442;2023-03-23T04:47:38;9.30;99.90
19974;DHT22;10148;47.694;9.442;2023-03-23T04:50:08;9.30;99.90
19974;DHT22;10148;47.694;9.442;2023-03-23T04:52:34;9.30;99.90
19974;DHT22;10148;47.694;9.442;2023-03-23T04:54:59;9.40;99.90
19974;DHT22;10148;47.694;9.442;2023-03-23T04:57:25;9.40;99.90
19974;DHT22;10148;47.694;9.442;2023-03-23T04:59:53;9.40;99.90
19974;DHT22;10148;47.694;9.442;2023-03-23T05:02:18;9.40;99.90
19974;DHT22;10148;47.694;9.442;2023-03-23T05:04:44;9.50;99.90
19974;DHT22;10148;47.694;9.442;2023-03-23T05:07:11;9.70;99.90
19974;DHT22;10148;47.694;9.442;2023-03-23T05:09:37;9.70;99.90
19974;DHT22;10148;47.694;9.442;2023-03-23T05:12:06;9.80;99.90
19974;DHT22;10148;47.694;9.442;2023-03-23T05:14:32;9.90;99.90
19974;DHT22;10148;47.694;9.442;2023-03-23T05:16:58;9.90;99.90
19974;DHT22;10148;47.694;9.442;2023-03-23T05:19:24;10.00;99.90
19974;DHT22;10148;47.694;9.442;2023-03-23T05:21:49;10.00;99.90
19974;DHT22;10148;47.694;9.442;2023-03-23T05:24:15;10.00;99.90
19974;DHT22;10148;47.694;9.442;2023-03-23T05:26:40;10.00;99.90
19974;DHT22;10148;47.694;9.442;2023-03-23T05:29:06;9.90;99.90
19974;DHT22;10148;47.694;9.442;2023-03-23T05:31:31;9.90;99.90
19974;DHT22;10148;47.694;9.442;2023-03-23T05:33:57;9.90;99.90
19974;DHT22;10148;47.694;9.442;2023-03-23T05:36:23;9.90;99.90
19974;DHT22;10148;47.694;9.442;2023-03-23T05:38:50;9.90;99.90
19974;DHT22;10148;47.694;9.442;2023-03-23T05:41:16;9.90;99.90
19974;DHT22;10148;47.694;9.442;2023-03-23T05:43:42;9.90;99.90
19974;DHT22;10148;47.694;9.442;2023-03-23T05:46:07;9.80;99.90
19974;DHT22;10148;47.694;9.442;2023-03-23T05:48:34;9.80;99.90
19974;DHT22;10148;47.694;9.442;2023-03-23T05:50:59;9.80;99.90
19974;DHT22;10148;47.694;9.442;2023-03-23T05:53:25;9.90;99.90
19974;DHT22;10148;47.694;9.442;2023-03-23T05:55:51;9.90;99.90
19974;DHT22;10148;47.694;9.442;2023-03-23T05:58:18;9.90;99.90
19974;DHT22;10148;47.694;9.442;2023-03-23T06:00:43;9.90;99.90
19974;DHT22;10148;47.694;9.442;2023-03-23T06:03:10;9.90;99.90
19974;DHT22;10148;47.694;9.442;2023-03-23T06:05:42;10.00;99.90
19974;DHT22;10148;47.694;9.442;2023-03-23T06:08:09;10.10;99.90
19974;DHT22;10148;47.694;9.442;2023-03-23T06:10:35;10.20;99.90
19974;DHT22;10148;47.694;9.442;2023-03-23T06:13:02;10.20;99.90
19974;DHT22;10148;47.694;9.442;2023-03-23T06:15:27;10.30;99.90
19974;DHT22;10148;47.694;9.442;2023-03-23T06:17:58;10.40;99.90
19974;DHT22;10148;47.694;9.442;2023-03-23T06:20:24;10.40;99.90
19974;DHT22;10148;47.694;9.442;2023-03-23T06:22:50;10.50;99.90
19974;DHT22;10148;47.694;9.442;2023-03-23T06:25:16;10.50;99.90
19974;DHT22;10148;47.694;9.442;2023-03-23T06:27:41;10.50;99.90
19974;DHT22;10148;47.694;9.442;2023-03-23T06:30:08;10.60;99.90
19974;DHT22;10148;47.694;9.442;2023-03-23T06:32:34;10.60;99.90
19974;DHT22;10148;47.694;9.442;2023-03-23T06:34:59;10.70;99.90
19974;DHT22;10148;47.694;9.442;2023-03-23T06:37:25;10.80;99.90
19974;DHT22;10148;47.694;9.442;2023-03-23T06:39:50;10.70;99.90
19974;DHT22;10148;47.694;9.442;2023-03-23T06:42:17;10.80;99.90
19974;DHT22;10148;47.694;9.442;2023-03-23T06:44:43;10.80;99.90
19974;DHT22;10148;47.694;9.442;2023-03-23T06:47:08;10.90;99.90
19974;DHT22;10148;47.694;9.442;2023-03-23T06:49:34;10.90;99.90
19974;DHT22;10148;47.694;9.442;2023-03-23T06:52:00;11.00;99.90
19974;DHT22;10148;47.694;9.442;2023-03-23T06:54:27;11.10;99.90
19974;DHT22;10148;47.694;9.442;2023-03-23T06:56:53;11.20;99.90
19974;DHT22;10148;47.694;9.442;2023-03-23T06:59:18;11.20;99.90
19974;DHT22;10148;47.694;9.442;2023-03-23T07:01:44;11.30;99.90
19974;DHT22;10148;47.694;9.442;2023-03-23T07:04:12;11.60;99.90
19974;DHT22;10148;47.694;9.442;2023-03-23T07:06:37;11.70;99.90
19974;DHT22;10148;47.694;9.442;2023-03-23T07:09:03;11.80;99.90
19974;DHT22;10148;47.694;9.442;2023-03-23T07:11:29;12.00;99.90
19974;DHT22;10148;47.694;9.442;2023-03-23T07:13:55;12.30;99.90
19974;DHT22;10148;47.694;9.442;2023-03-23T07:16:21;12.60;99.90
19974;DHT22;10148;47.694;9.442;2023-03-23T07:18:47;12.90;99.90
19974;DHT22;10148;47.694;9.442;2023-03-23T07:21:12;13.10;99.90
19974;DHT22;10148;47.694;9.442;2023-03-23T07:23:38;13.20;99.90
19974;DHT22;10148;47.694;9.442;2023-03-23T07:26:03;13.20;99.90
19974;DHT22;10148;47.694;9.442;2023-03-23T07:28:30;13.20;99.90
19974;DHT22;10148;47.694;9.442;2023-03-23T07:30:55;13.20;99.90
19974;DHT22;10148;47.694;9.442;2023-03-23T07:33:21;13.20;99.90
19974;DHT22;10148;47.694;9.442;2023-03-23T07:35:47;13.20;99.90
19974;DHT22;10148;47.694;9.442;2023-03-23T07:38:14;13.20;99.90
19974;DHT22;10148;47.694;9.442;2023-03-23T07:40:40;13.00;99.90
19974;DHT22;10148;47.694;9.442;2023-03-23T07:43:06;12.90;99.90
19974;DHT22;10148;47.694;9.442;2023-03-23T07:45:32;12.90;99.90
19974;DHT22;10148;47.694;9.442;2023-03-23T07:47:58;12.90;99.90
19974;DHT22;10148;47.694;9.442;2023-03-23T07:50:24;12.90;99.90
19974;DHT22;10148;47.694;9.442;2023-03-23T07:52:53;13.00;99.90
19974;DHT22;10148;47.694;9.442;2023-03-23T07:55:19;13.10;99.90
19974;DHT22;10148;47.694;9.442;2023-03-23T07:57:45;13.20;99.90
19974;DHT22;10148;47.694;9.442;2023-03-23T08:00:13;13.30;99.90
19974;DHT22;10148;47.694;9.442;2023-03-23T08:02:48;13.40;99.90
19974;DHT22;10148;47.694;9.442;2023-03-23T08:05:14;13.50;99.90
19974;DHT22;10148;47.694;9.442;2023-03-23T08:07:40;13.60;99.90
19974;DHT22;10148;47.694;9.442;2023-03-23T08:10:08;13.70;99.90
19974;DHT22;10148;47.694;9.442;2023-03-23T08:12:37;13.70;99.90
19974;DHT22;10148;47.694;9.442;2023-03-23T08:15:04;13.70;99.90
19974;DHT22;10148;47.694;9.442;2023-03-23T08:17:32;13.80;99.90
19974;DHT22;10148;47.694;9.442;2023-03-23T08:19:58;13.80;99.90
19974;DHT22;10148;47.694;9.442;2023-03-23T08:22:24;13.80;99.90
19974;DHT22;10148;47.694;9.442;2023-03-23T08:24:50;13.90;99.90
19974;DHT22;10148;47.694;9.442;2023-03-23T08:27:15;13.90;99.90
19974;DHT22;10148;47.694;9.442;2023-03-23T08:29:43;14.00;99.90
19974;DHT22;10148;47.694;9.442;2023-03-23T08:32:09;14.10;99.90
19974;DHT22;10148;47.694;9.442;2023-03-23T08:34:35;14.20;99.90
19974;DHT22;10148;47.694;9.442;2023-03-23T08:37:00;14.20;99.90
19974;DHT22;10148;47.694;9.442;2023-03-23T08:39:26;14.20;99.90
19974;DHT22;10148;47.694;9.442;2023-03-23T08:41:51;14.20;99.90
19974;DHT22;10148;47.694;9.442;2023-03-23T08:44:17;14.30;99.90
19974;DHT22;10148;47.694;9.442;2023-03-23T08:46:43;14.30;99.90
19974;DHT22;10148;47.694;9.442;2023-03-23T08:49:08;14.40;99.90
19974;DHT22;10148;47.694;9.442;2023-03-23T08:51:34;14.50;99.90
19974;DHT22;10148;47.694;9.442;2023-03-23T08:54:01;14.60;99.90
19974;DHT22;10148;47.694;9.442;2023-03-23T08:56:27;14.60;99.90
19974;DHT22;10148;47.694;9.442;2023-03-23T08:58:52;14.70;99.90
19974;DHT22;10148;47.694;9.442;2023-03-23T09:01:18;14.70;99.90
19974;DHT22;10148;47.694;9.442;2023-03-23T09:03:44;14.80;99.90
19974;DHT22;10148;47.694;9.442;2023-03-23T09:06:10;14.80;99.90
19974;DHT22;10148;47.694;9.442;2023-03-23T09:08:38;14.80;99.90
19974;DHT22;10148;47.694;9.442;2023-03-23T09:11:08;14.80;99.90
19974;DHT22;10148;47.694;9.442;2023-03-23T09:13:35;14.90;99.90
19974;DHT22;10148;47.694;9.442;2023-03-23T09:16:01;14.90;99.90
19974;DHT22;10148;47.694;9.442;2023-03-23T09:18:27;14.90;99.90
19974;DHT22;10148;47.694;9.442;2023-03-23T09:20:53;15.00;99.90
19974;DHT22;10148;47.694;9.442;2023-03-23T09:23:19;14.90;99.90
19974;DHT22;10148;47.694;9.442;2023-03-23T09:25:46;14.90;99.90
19974;DHT22;10148;47.694;9.442;2023-03-23T09:28:12;14.90;99.90
19974;DHT22;10148;47.694;9.442;2023-03-23T09:30:40;14.80;99.90
19974;DHT22;10148;47.694;9.442;2023-03-23T09:33:06;14.80;99.90
19974;DHT22;10148;47.694;9.442;2023-03-23T09:35:34;14.80;99.90
19974;DHT22;10148;47.694;9.442;2023-03-23T09:38:01;14.90;99.90
19974;DHT22;10148;47.694;9.442;2023-03-23T09:40:32;14.90;99.90
19974;DHT22;10148;47.694;9.442;2023-03-23T09:45:41;15.10;99.90
19974;DHT22;10148;47.694;9.442;2023-03-23T09:51:24;15.20;99.90
19974;DHT22;10148;47.694;9.442;2023-03-23T09:53:55;15.30;99.90
19974;DHT22;10148;47.694;9.442;2023-03-23T09:56:23;15.40;99.90
19974;DHT22;10148;47.694;9.442;2023-03-23T09:58:59;15.50;99.90
19974;DHT22;10148;47.694;9.442;2023-03-23T10:01:33;15.70;99.90
19974;DHT22;10148;47.694;9.442;2023-03-23T10:04:09;15.80;99.90
19974;DHT22;10148;47.694;9.442;2023-03-23T10:06:36;16.00;99.90
19974;DHT22;10148;47.694;9.442;2023-03-23T10:09:03;16.20;99.90
19974;DHT22;10148;47.694;9.442;2023-03-23T10:12:00;16.20;99.90
19974;DHT22;10148;47.694;9.442;2023-03-23T10:17:15;16.20;99.90
19974;DHT22;10148;47.694;9.442;2023-03-23T10:20:13;16.30;99.90
19974;DHT22;10148;47.694;9.442;2023-03-23T10:22:37;16.50;99.90
19974;DHT22;10148;47.694;9.442;2023-03-23T10:32:53;16.70;99.90
19974;DHT22;10148;47.694;9.442;2023-03-23T10:35:26;16.70;99.90
19974;DHT22;10148;47.694;9.442;2023-03-23T10:38:01;16.80;99.90
19974;DHT22;10148;47.694;9.442;2023-03-23T10:40:29;16.90;99.90
19974;DHT22;10148;47.694;9.442;2023-03-23T10:42:56;17.00;99.90
19974;DHT22;10148;47.694;9.442;2023-03-23T10:45:28;17.10;99.90
19974;DHT22;10148;47.694;9.442;2023-03-23T10:48:08;17.10;99.90
19974;DHT22;10148;47.694;9.442;2023-03-23T10:50:36;17.00;99.90
19974;DHT22;10148;47.694;9.442;2023-03-23T10:53:15;17.00;99.90
19974;DHT22;10148;47.694;9.442;2023-03-23T10:55:42;17.00;99.90
19974;DHT22;10148;47.694;9.442;2023-03-23T10:58:11;17.00;99.90
19974;DHT22;10148;47.694;9.442;2023-03-23T11:00:43;17.10;99.90
19974;DHT22;10148;47.694;9.442;2023-03-23T11:05:48;17.00;99.90
19974;DHT22;10148;47.694;9.442;2023-03-23T11:08:20;16.90;99.90
19974;DHT22;10148;47.694;9.442;2023-03-23T11:11:10;16.70;99.90
19974;DHT22;10148;47.694;9.442;2023-03-23T11:13:41;16.60;99.90
19974;DHT22;10148;47.694;9.442;2023-03-23T11:16:09;16.50;99.90
19974;DHT22;10148;47.694;9.442;2023-03-23T11:18:38;16.40;99.90
19974;DHT22;10148;47.694;9.442;2023-03-23T11:21:05;16.40;99.90
19974;DHT22;10148;47.694;9.442;2023-03-23T11:23:34;16.30;99.90
19974;DHT22;10148;47.694;9.442;2023-03-23T11:26:15;16.30;99.90
19974;DHT22;10148;47.694;9.442;2023-03-23T11:28:48;16.30;99.90
19974;DHT22;10148;47.694;9.442;2023-03-23T11:31:16;16.40;99.90
19974;DHT22;10148;47.694;9.442;2023-03-23T11:33:52;16.50;99.90
19974;DHT22;10148;47.694;9.442;2023-03-23T11:36:19;16.50;99.90
19974;DHT22;10148;47.694;9.442;2023-03-23T11:38:46;16.50;99.90
19974;DHT22;10148;47.694;9.442;2023-03-23T11:41:16;16.40;99.90
19974;DHT22;10148;47.694;9.442;2023-03-23T11:43:46;16.30;99.90
19974;DHT22;10148;47.694;9.442;2023-03-23T11:46:18;16.30;99.90
19974;DHT22;10148;47.694;9.442;2023-03-23T11:48:55;16.30;99.90
19974;DHT22;10148;47.694;9.442;2023-03-23T11:51:58;16.30;99.90
19974;DHT22;10148;47.694;9.442;2023-03-23T11:54:33;16.30;99.90
19974;DHT22;10148;47.694;9.442;2023-03-23T11:56:59;16.50;99.90
19974;DHT22;10148;47.694;9.442;2023-03-23T11:59:33;16.50;99.90
19974;DHT22;10148;47.694;9.442;2023-03-23T12:04:54;16.70;99.90
19974;DHT22;10148;47.694;9.442;2023-03-23T12:10:29;16.90;99.90
19974;DHT22;10148;47.694;9.442;2023-03-23T12:13:11;16.90;99.90
19974;DHT22;10148;47.694;9.442;2023-03-23T12:15:45;16.90;99.90
19974;DHT22;10148;47.694;9.442;2023-03-23T12:18:25;17.00;99.90
19974;DHT22;10148;47.694;9.442;2023-03-23T12:21:09;17.10;99.90
19974;DHT22;10148;47.694;9.442;2023-03-23T12:23:45;17.20;99.90
19974;DHT22;10148;47.694;9.442;2023-03-23T12:26:14;17.30;99.90
19974;DHT22;10148;47.694;9.442;2023-03-23T12:37:19;17.40;99.90
19974;DHT22;10148;47.694;9.442;2023-03-23T12:40:00;17.40;99.90
19974;DHT22;10148;47.694;9.442;2023-03-23T12:42:59;17.60;99.90
19974;DHT22;10148;47.694;9.442;2023-03-23T12:45:57;17.90;99.90
19974;DHT22;10148;47.694;9.442;2023-03-23T12:48:28;18.00;99.90
19974;DHT22;10148;47.694;9.442;2023-03-23T12:51:13;18.10;99.90
19974;DHT22;10148;47.694;9.442;2023-03-23T12:56:29;17.80;99.90
19974;DHT22;10148;47.694;9.442;2023-03-23T13:04:43;17.40;99.90
19974;DHT22;10148;47.694;9.442;2023-03-23T13:07:14;17.40;99.90
19974;DHT22;10148;47.694;9.442;2023-03-23T13:10:04;17.50;99.90
19974;DHT22;10148;47.694;9.442;2023-03-23T13:12:32;17.60;99.90
19974;DHT22;10148;47.694;9.442;2023-03-23T13:15:28;17.50;99.90
19974;DHT22;10148;47.694;9.442;2023-03-23T13:18:08;17.40;99.90
19974;DHT22;10148;47.694;9.442;2023-03-23T13:23:59;17.40;99.90
19974;DHT22;10148;47.694;9.442;2023-03-23T13:26:26;17.30;99.90
19974;DHT22;10148;47.694;9.442;2023-03-23T13:29:19;17.30;99.90
19974;DHT22;10148;47.694;9.442;2023-03-23T13:31:46;17.30;99.90
19974;DHT22;10148;47.694;9.442;2023-03-23T13:34:25;17.30;99.90
19974;DHT22;10148;47.694;9.442;2023-03-23T13:36:59;17.40;99.90
19974;DHT22;10148;47.694;9.442;2023-03-23T13:39:35;17.50;99.90
19974;DHT22;10148;47.694;9.442;2023-03-23T13:47:37;17.40;99.90
19974;DHT22;10148;47.694;9.442;2023-03-23T13:50:09;17.40;99.90
19974;DHT22;10148;47.694;9.442;2023-03-23T13:52:50;17.30;99.90
19974;DHT22;10148;47.694;9.442;2023-03-23T14:03:05;16.90;99.90
19974;DHT22;10148;47.694;9.442;2023-03-23T14:05:41;16.80;99.90
19974;DHT22;10148;47.694;9.442;2023-03-23T14:16:20;16.60;99.90
19974;DHT22;10148;47.694;9.442;2023-03-23T14:18:55;16.50;99.90
19974;DHT22;10148;47.694;9.442;2023-03-23T14:21:37;16.40;99.90
19974;DHT22;10148;47.694;9.442;2023-03-23T14:24:14;16.30;99.90
19974;DHT22;10148;47.694;9.442;2023-03-23T14:26:41;16.30;99.90
19974;DHT22;10148;47.694;9.442;2023-03-23T14:29:10;16.20;99.90
19974;DHT22;10148;47.694;9.442;2023-03-23T14:31:36;16.20;99.90
19974;DHT22;10148;47.694;9.442;2023-03-23T14:34:04;16.10;99.90
19974;DHT22;10148;47.694;9.442;2023-03-23T14:36:36;16.20;99.90
19974;DHT22;10148;47.694;9.442;2023-03-23T14:39:06;16.00;99.90
19974;DHT22;10148;47.694;9.442;2023-03-23T14:41:34;16.00;99.90
19974;DHT22;10148;47.694;9.442;2023-03-23T14:44:02;16.00;99.90
19974;DHT22;10148;47.694;9.442;2023-03-23T14:46:30;16.00;99.90
19974;DHT22;10148;47.694;9.442;2023-03-23T14:48:58;16.00;99.90
19974;DHT22;10148;47.694;9.442;2023-03-23T14:51:24;15.90;99.90
19974;DHT22;10148;47.694;9.442;2023-03-23T14:53:52;15.90;99.90
19974;DHT22;10148;47.694;9.442;2023-03-23T14:56:20;15.90;99.90
19974;DHT22;10148;47.694;9.442;2023-03-23T14:58:49;15.90;99.90
19974;DHT22;10148;47.694;9.442;2023-03-23T15:01:24;15.90;99.90
19974;DHT22;10148;47.694;9.442;2023-03-23T15:04:12;15.80;99.90
19974;DHT22;10148;47.694;9.442;2023-03-23T15:06:43;15.90;99.90
19974;DHT22;10148;47.694;9.442;2023-03-23T15:09:20;15.90;99.90
19974;DHT22;10148;47.694;9.442;2023-03-23T15:11:59;15.80;99.90
19974;DHT22;10148;47.694;9.442;2023-03-23T15:14:47;15.80;99.90
19974;DHT22;10148;47.694;9.442;2023-03-23T15:17:25;15.80;99.90
19974;DHT22;10148;47.694;9.442;2023-03-23T15:19:52;15.80;99.90
19974;DHT22;10148;47.694;9.442;2023-03-23T15:22:30;15.80;99.90
19974;DHT22;10148;47.694;9.442;2023-03-23T15:25:18;15.80;99.90
19974;DHT22;10148;47.694;9.442;2023-03-23T15:27:50;15.80;99.90
19974;DHT22;10148;47.694;9.442;2023-03-23T15:32:51;15.70;99.90
19974;DHT22;10148;47.694;9.442;2023-03-23T15:35:23;15.70;99.90
19974;DHT22;10148;47.694;9.442;2023-03-23T15:37:59;15.60;99.90
19974;DHT22;10148;47.694;9.442;2023-03-23T15:40:26;15.70;99.90
19974;DHT22;10148;47.694;9.442;2023-03-23T15:43:32;15.60;99.90
19974;DHT22;10148;47.694;9.442;2023-03-23T15:46:05;15.60;99.90
19974;DHT22;10148;47.694;9.442;2023-03-23T15:49:13;15.60;99.90
19974;DHT22;10148;47.694;9.442;2023-03-23T15:51:39;15.60;99.90
19974;DHT22;10148;47.694;9.442;2023-03-23T15:54:10;15.60;99.90
19974;DHT22;10148;47.694;9.442;2023-03-23T15:56:37;15.60;99.90
19974;DHT22;10148;47.694;9.442;2023-03-23T15:59:03;15.60;99.90
19974;DHT22;10148;47.694;9.442;2023-03-23T16:01:29;15.60;99.90
19974;DHT22;10148;47.694;9.442;2023-03-23T16:06:32;15.60;99.90
19974;DHT22;10148;47.694;9.442;2023-03-23T16:08:58;15.60;99.90
19974;DHT22;10148;47.694;9.442;2023-03-23T16:11:26;15.60;99.90
19974;DHT22;10148;47.694;9.442;2023-03-23T16:13:52;15.60;99.90
19974;DHT22;10148;47.694;9.442;2023-03-23T16:16:27;15.60;99.90
19974;DHT22;10148;47.694;9.442;2023-03-23T16:18:53;15.60;99.90
19974;DHT22;10148;47.694;9.442;2023-03-23T16:21:19;15.60;99.90
19974;DHT22;10148;47.694;9.442;2023-03-23T16:23:45;15.60;99.90
19974;DHT22;10148;47.694;9.442;2023-03-23T16:26:12;15.50;99.90
19974;DHT22;10148;47.694;9.442;2023-03-23T16:28:38;15.50;99.90
19974;DHT22;10148;47.694;9.442;2023-03-23T16:31:05;15.50;99.90
19974;DHT22;10148;47.694;9.442;2023-03-23T16:33:31;15.50;99.90
19974;DHT22;10148;47.694;9.442;2023-03-23T16:35:56;15.50;99.90
19974;DHT22;10148;47.694;9.442;2023-03-23T16:38:23;15.50;99.90
19974;DHT22;10148;47.694;9.442;2023-03-23T16:40:49;15.40;99.90
19974;DHT22;10148;47.694;9.442;2023-03-23T16:43:14;15.50;99.90
19974;DHT22;10148;47.694;9.442;2023-03-23T16:45:42;15.40;99.90
19974;DHT22;10148;47.694;9.442;2023-03-23T16:48:08;15.40;99.90
19974;DHT22;10148;47.694;9.442;2023-03-23T16:50:35;15.50;99.90
19974;DHT22;10148;47.694;9.442;2023-03-23T16:53:02;15.40;99.90
19974;DHT22;10148;47.694;9.442;2023-03-23T16:55:29;15.40;99.90
19974;DHT22;10148;47.694;9.442;2023-03-23T16:57:56;15.40;99.90
19974;DHT22;10148;47.694;9.442;2023-03-23T17:00:22;15.40;99.90
19974;DHT22;10148;47.694;9.442;2023-03-23T17:02:50;15.40;99.90
19974;DHT22;10148;47.694;9.442;2023-03-23T17:05:22;15.40;99.90
19974;DHT22;10148;47.694;9.442;2023-03-23T17:07:48;15.30;99.90
19974;DHT22;10148;47.694;9.442;2023-03-23T17:10:15;15.40;99.90
19974;DHT22;10148;47.694;9.442;2023-03-23T17:12:42;15.40;99.90
19974;DHT22;10148;47.694;9.442;2023-03-23T17:15:08;15.30;99.90
19974;DHT22;10148;47.694;9.442;2023-03-23T17:17:34;15.30;99.90
19974;DHT22;10148;47.694;9.442;2023-03-23T17:20:00;15.30;99.90
19974;DHT22;10148;47.694;9.442;2023-03-23T17:22:26;15.10;99.90
19974;DHT22;10148;47.694;9.442;2023-03-23T17:24:52;14.90;99.90